createdAt,value
2022-12-01T00:01:22.202Z,15.23
2022-12-01T00:05:01.706Z,17.95
2022-12-01T00:08:24.081Z,14.43
2022-12-01T00:11:54.582Z,14.32
2022-12-01T00:15:31.884Z,14.55
2022-12-01T00:22:26.798Z,17.37
2022-12-01T00:33:44.650Z,17.87
2022-12-01T00:37:00.661Z,15.13
2022-12-01T00:40:16.649Z,14.35
2022-12-01T00:43:26.718Z,18.42
2022-12-01T00:46:37.640Z,19.23
2022-12-01T00:49:46.898Z,16.45
2022-12-01T00:52:57.654Z,12.80
2022-12-01T00:56:06.561Z,14.13
2022-12-01T00:59:28.665Z,18.30
2022-12-01T01:02:41.034Z,17.73
2022-12-01T01:05:51.770Z,15.65
2022-12-01T01:09:00.244Z,14.97
2022-12-01T01:12:08.706Z,17.10
2022-12-01T01:15:27.729Z,17.27
2022-12-01T01:18:35.639Z,15.60
2022-12-01T01:21:51.614Z,17.80
2022-12-01T01:25:09.623Z,17.63
2022-12-01T01:28:19.039Z,18.80
2022-12-01T01:31:36.829Z,18.00
2022-12-01T01:34:46.905Z,17.67
2022-12-01T01:38:05.676Z,17.15
2022-12-01T01:41:16.131Z,16.87
2022-12-01T01:44:51.574Z,16.45
2022-12-01T01:48:27.866Z,14.98
2022-12-01T01:51:37.017Z,15.95
2022-12-01T01:55:14.704Z,17.15
2022-12-01T01:58:24.070Z,18.00
2022-12-01T02:01:34.072Z,18.67
2022-12-01T02:04:47.950Z,20.15
2022-12-01T02:08:04.691Z,18.67
2022-12-01T02:11:42.434Z,18.55
2022-12-01T02:15:20.827Z,16.53
2022-12-01T02:18:45.905Z,19.52
2022-12-01T02:22:29.695Z,18.52
2022-12-01T02:26:22.741Z,18.83
2022-12-01T02:30:07.027Z,15.80
2022-12-01T02:33:35.842Z,17.07
2022-12-01T02:37:01.710Z,16.73
2022-12-01T02:40:21.662Z,17.45
2022-12-01T02:43:50.606Z,16.15
2022-12-01T02:47:03.512Z,18.12
2022-12-01T02:50:19.679Z,16.97
2022-12-01T02:53:22.022Z,14.65
2022-12-01T02:56:36.605Z,17.37
2022-12-01T02:59:41.798Z,17.42
2022-12-01T03:03:25.248Z,17.35
2022-12-01T03:07:21.083Z,16.87
2022-12-01T03:10:45.324Z,15.75
2022-12-01T03:14:43.041Z,16.67
2022-12-01T03:18:23.820Z,18.08
2022-12-01T03:21:35.063Z,16.62
2022-12-01T03:24:55.658Z,17.17
2022-12-01T03:28:20.625Z,17.48
2022-12-01T03:31:39.735Z,17.23
2022-12-01T03:34:54.574Z,16.08
2022-12-01T03:38:19.671Z,16.25
2022-12-01T03:41:27.905Z,17.73
2022-12-01T03:44:51.938Z,13.13
2022-12-01T03:48:09.707Z,18.40
2022-12-01T03:51:44.967Z,15.18
2022-12-01T03:55:11.763Z,18.90
2022-12-01T03:58:41.722Z,19.90
2022-12-01T04:01:51.817Z,18.73
2022-12-01T04:05:03.825Z,19.00
2022-12-01T04:08:26.690Z,16.92
2022-12-01T04:11:35.369Z,21.23
2022-12-01T04:14:43.686Z,21.50
2022-12-01T04:17:55.209Z,17.60
2022-12-01T04:21:17.729Z,15.70
2022-12-01T04:24:33.811Z,16.60
2022-12-01T04:27:36.045Z,21.37
2022-12-01T04:30:50.647Z,18.23
2022-12-01T04:34:05.063Z,15.77
2022-12-01T04:37:21.515Z,15.48
2022-12-01T04:40:29.778Z,15.52
2022-12-01T04:43:56.970Z,16.75
2022-12-01T04:47:03.794Z,12.83
2022-12-01T04:50:19.726Z,15.43
2022-12-01T04:57:05.701Z,17.25
2022-12-01T05:00:08.080Z,15.30
2022-12-01T05:03:33.803Z,13.57
2022-12-01T05:06:54.475Z,16.52
2022-12-01T05:10:10.647Z,16.20
2022-12-01T05:13:18.768Z,19.73
2022-12-01T05:16:40.777Z,15.45
2022-12-01T05:19:49.859Z,16.80
2022-12-01T05:23:06.565Z,18.30
2022-12-01T05:26:15.730Z,19.52
2022-12-01T05:29:24.306Z,15.02
2022-12-01T05:32:33.009Z,17.75
2022-12-01T05:35:57.692Z,14.57
2022-12-01T05:38:59.887Z,18.92
2022-12-01T05:42:15.120Z,18.30
2022-12-01T05:45:17.295Z,15.18
2022-12-01T05:48:34.998Z,18.52
2022-12-01T05:51:36.947Z,17.20
2022-12-01T05:54:59.200Z,14.82
2022-12-01T05:58:01.623Z,21.15
2022-12-01T06:01:16.958Z,19.48
2022-12-01T06:04:18.748Z,21.75
2022-12-01T06:07:39.729Z,21.30
2022-12-01T06:10:41.756Z,20.35
2022-12-01T06:14:18.730Z,19.27
2022-12-01T06:17:23.581Z,18.08
2022-12-01T06:20:39.688Z,19.55
2022-12-01T06:23:58.762Z,22.63
2022-12-01T06:27:07.475Z,20.67
2022-12-01T06:30:15.835Z,19.85
2022-12-01T06:41:37.686Z,22.30
2022-12-01T06:55:50.200Z,22.15
2022-12-01T07:03:13.551Z,22.05
2022-12-01T07:14:46.074Z,17.87
2022-12-01T07:18:05.907Z,26.35
2022-12-01T07:21:47.731Z,28.80
2022-12-01T07:25:02.834Z,31.42
2022-12-01T07:28:19.559Z,28.80
2022-12-01T07:39:19.820Z,28.23
2022-12-01T07:42:39.913Z,23.67
2022-12-01T07:54:07.589Z,29.27
2022-12-01T07:58:19.495Z,25.70
2022-12-01T08:02:17.317Z,26.58
2022-12-01T08:37:19.287Z,28.15
2022-12-01T09:21:23.041Z,26.33
2022-12-01T09:29:00.564Z,24.02
2022-12-01T09:45:34.722Z,17.10
2022-12-01T11:55:29.351Z,22.37
2022-12-01T12:19:52.485Z,15.43
2022-12-01T12:23:36.796Z,19.27
2022-12-01T12:35:01.764Z,17.60
2022-12-01T12:47:19.921Z,19.90
2022-12-01T12:59:26.908Z,16.15
2022-12-01T13:29:47.317Z,11.33
2022-12-01T13:33:48.042Z,12.83
2022-12-01T13:37:00.851Z,10.88
2022-12-01T13:40:35.045Z,12.75
2022-12-01T14:27:38.771Z,12.20
2022-12-01T14:35:01.780Z,10.20
2022-12-01T14:38:34.804Z,11.07
2022-12-01T14:57:07.362Z,12.75
2022-12-01T15:00:24.137Z,17.40
2022-12-01T15:16:28.916Z,17.30
2022-12-01T15:20:04.824Z,13.60
2022-12-01T15:27:03.666Z,12.23
2022-12-01T15:30:20.921Z,15.07
2022-12-01T15:33:37.163Z,12.18
2022-12-01T15:36:52.776Z,14.30
2022-12-01T15:41:27.462Z,15.63
2022-12-01T15:44:37.758Z,15.48
2022-12-01T15:51:44.983Z,12.70
2022-12-01T16:06:41.781Z,14.85
2022-12-01T16:10:37.793Z,15.45
2022-12-01T16:14:21.879Z,14.07
2022-12-01T16:29:59.867Z,14.93
2022-12-01T16:45:50.834Z,17.00
2022-12-01T16:49:05.767Z,16.05
2022-12-01T16:56:33.830Z,14.60
2022-12-01T16:59:55.905Z,15.07
2022-12-01T17:03:51.762Z,18.12
2022-12-01T17:07:06.837Z,19.40
2022-12-01T17:14:06.842Z,15.30
2022-12-01T17:17:21.934Z,16.90
2022-12-01T17:20:38.534Z,20.90
2022-12-01T17:24:09.490Z,22.20
2022-12-01T17:27:45.800Z,16.53
2022-12-01T17:30:53.888Z,20.60
2022-12-01T17:45:10.346Z,19.90
2022-12-01T17:48:24.757Z,17.77
2022-12-01T17:54:58.406Z,20.08
2022-12-01T17:58:12.849Z,20.30
2022-12-01T18:01:33.914Z,24.73
2022-12-01T18:07:55.833Z,22.05
2022-12-01T18:11:14.746Z,21.75
2022-12-01T18:14:31.777Z,20.37
2022-12-01T18:17:40.309Z,17.90
2022-12-01T18:20:49.746Z,19.53
2022-12-01T18:24:07.761Z,23.25
2022-12-01T18:27:33.014Z,18.80
2022-12-01T18:30:58.827Z,23.52
2022-12-01T18:38:11.778Z,22.07
2022-12-01T18:41:45.939Z,23.58
2022-12-01T18:45:23.041Z,23.20
2022-12-01T18:53:42.880Z,25.73
2022-12-01T18:56:59.779Z,27.87
2022-12-01T19:00:08.849Z,30.05
2022-12-01T19:03:23.853Z,22.25
2022-12-01T19:10:15.786Z,21.40
2022-12-01T19:13:17.661Z,23.20
2022-12-01T19:16:34.886Z,22.30
2022-12-01T19:19:37.703Z,22.50
2022-12-01T19:22:54.877Z,22.33
2022-12-01T19:29:16.875Z,22.37
2022-12-01T19:32:31.890Z,21.60
2022-12-01T19:35:40.470Z,24.02
2022-12-01T19:38:55.823Z,22.20
2022-12-01T19:42:05.511Z,24.03
2022-12-01T19:45:14.827Z,22.75
2022-12-01T19:48:23.361Z,25.15
2022-12-01T19:51:40.785Z,23.60
2022-12-01T19:54:55.871Z,25.73
2022-12-01T19:57:57.563Z,24.07
2022-12-01T20:01:15.851Z,26.20
2022-12-01T20:04:17.638Z,21.12
2022-12-01T20:07:32.047Z,22.85
2022-12-01T20:14:57.892Z,25.63
2022-12-01T20:18:05.778Z,20.73
2022-12-01T20:21:19.914Z,22.65
2022-12-01T20:24:54.754Z,26.10
2022-12-01T20:28:09.839Z,24.17
2022-12-01T20:31:17.326Z,25.83
2022-12-01T20:34:37.843Z,23.65
2022-12-01T20:37:39.385Z,20.45
2022-12-01T20:41:00.846Z,20.10
2022-12-01T20:44:09.835Z,20.25
2022-12-01T20:47:17.834Z,20.33
2022-12-01T20:50:26.539Z,22.30
2022-12-01T20:53:34.824Z,24.92
2022-12-01T20:56:49.805Z,21.73
2022-12-01T20:59:51.566Z,24.08
2022-12-01T21:03:05.882Z,25.73
2022-12-01T21:10:36.358Z,24.40
2022-12-01T21:13:46.277Z,25.77
2022-12-01T21:17:06.014Z,28.50
2022-12-01T21:24:54.289Z,27.80
2022-12-01T21:32:05.907Z,22.60
2022-12-01T21:42:57.873Z,26.37
2022-12-01T21:46:19.895Z,25.10
2022-12-01T21:54:16.546Z,26.42
2022-12-01T21:58:24.830Z,32.30
2022-12-01T22:01:34.535Z,34.17
2022-12-01T22:04:44.105Z,29.95
2022-12-01T22:11:38.141Z,30.98
2022-12-01T22:14:53.136Z,30.00
2022-12-01T22:18:37.723Z,28.75
2022-12-01T22:21:55.914Z,27.62
2022-12-01T22:25:28.851Z,27.40
2022-12-01T22:28:30.641Z,24.73
2022-12-01T22:31:45.854Z,24.13
2022-12-01T22:35:03.821Z,24.77
2022-12-01T22:38:33.855Z,23.40
2022-12-01T22:41:42.411Z,25.70
2022-12-01T22:44:56.826Z,34.13
2022-12-01T22:48:31.533Z,23.60
2022-12-01T22:51:47.837Z,28.40
2022-12-01T22:55:21.786Z,26.62
2022-12-01T22:58:36.836Z,26.37
2022-12-01T23:01:52.636Z,26.70
2022-12-01T23:05:04.837Z,25.30
2022-12-01T23:08:28.801Z,25.42
2022-12-01T23:11:30.486Z,25.85
2022-12-01T23:14:53.052Z,23.77
2022-12-01T23:17:55.109Z,25.05
2022-12-01T23:21:09.864Z,26.13
2022-12-01T23:24:21.955Z,26.05
2022-12-01T23:27:30.837Z,27.25
2022-12-01T23:30:39.818Z,29.70
2022-12-01T23:33:54.822Z,27.90
2022-12-01T23:37:02.857Z,25.50
2022-12-01T23:40:31.266Z,24.80
2022-12-01T23:43:44.874Z,25.37
2022-12-01T23:47:02.828Z,22.25
2022-12-01T23:50:13.225Z,23.62
2022-12-01T23:53:32.898Z,22.73
2022-12-01T23:56:37.798Z,24.12
2022-12-01T23:59:52.871Z,24.70
